Terminal Aerodrome Forecast
Issued by NWS Knoxville/Tri Cities, TN

Home | Current Version | Previous Version | Text Only | Print | Product List | Glossary On
Versions: 1 2 3 4 5 6 7 8 9 10 11 12 13 14 15 16 17 18
000
FTUS44 KMRX 271720
TAFTRI
TAF
KTRI 271720Z 2718/2818 25010KT P6SM BKN050
     FM280000 23005KT 3SM TSRA OVC020CB
     FM280400 VRB03KT P6SM BKN050
     FM281200 20003KT P6SM VCTS OVC025CB=

USA.gov is the U.S. government's official web portal to all federal, state and local government web resources and services.